createdAt,value
2022-10-12T00:03:07.825Z,7.80
2022-10-12T00:09:09.533Z,7.70
2022-10-12T00:15:11.911Z,7.50
2022-10-12T00:21:14.932Z,7.60
2022-10-12T00:27:16.778Z,7.40
2022-10-12T00:33:18.606Z,7.30
2022-10-12T00:39:20.263Z,7.40
2022-10-12T00:45:24.008Z,7.50
2022-10-12T00:51:25.974Z,7.60
2022-10-12T00:57:28.027Z,7.60
2022-10-12T01:03:29.924Z,7.60
2022-10-12T01:09:31.604Z,7.50
2022-10-12T01:15:59.304Z,7.40
2022-10-12T01:22:02.567Z,7.20
2022-10-12T01:28:14.208Z,7.20
2022-10-12T01:34:26.827Z,7.10
2022-10-12T01:40:35.054Z,7.00
2022-10-12T01:46:39.441Z,7.10
2022-10-12T01:52:45.719Z,6.80
2022-10-12T01:58:53.172Z,6.90
2022-10-12T02:05:15.113Z,6.90
2022-10-12T02:11:18.136Z,6.90
2022-10-12T02:17:21.521Z,7.00
2022-10-12T02:23:24.797Z,6.80
2022-10-12T02:29:32.680Z,6.70
2022-10-12T02:35:40.465Z,6.80
2022-10-12T02:41:45.246Z,6.90
2022-10-12T02:47:47.863Z,6.90
2022-10-12T02:53:50.336Z,6.80
2022-10-12T02:59:52.004Z,6.90
2022-10-12T03:05:53.952Z,6.90
2022-10-12T03:11:55.775Z,6.90
2022-10-12T03:17:57.669Z,6.80
2022-10-12T03:23:59.621Z,6.70
2022-10-12T03:30:01.440Z,6.60
2022-10-12T03:36:03.160Z,6.60
2022-10-12T03:42:04.851Z,6.80
2022-10-12T03:48:07.111Z,6.60
2022-10-12T03:54:08.793Z,6.50
2022-10-12T04:00:10.801Z,6.50
2022-10-12T04:06:12.659Z,6.40
2022-10-12T04:12:14.424Z,6.40
2022-10-12T04:18:16.688Z,6.50
2022-10-12T04:24:18.426Z,6.40
2022-10-12T04:30:20.321Z,6.20
2022-10-12T04:36:22.027Z,6.00
2022-10-12T04:42:23.848Z,6.00
2022-10-12T04:48:26.055Z,6.00
2022-10-12T04:54:27.710Z,5.80
2022-10-12T05:00:35.281Z,5.80
2022-10-12T05:06:36.943Z,5.80
2022-10-12T05:12:38.945Z,6.00
2022-10-12T05:18:40.929Z,6.00
2022-10-12T05:24:42.676Z,5.90
2022-10-12T05:30:44.307Z,5.70
2022-10-12T05:36:46.030Z,5.60
2022-10-12T05:42:47.732Z,5.60
2022-10-12T05:48:49.374Z,5.80
2022-10-12T05:54:51.055Z,5.90
2022-10-12T06:00:53.074Z,5.80
2022-10-12T06:06:54.698Z,5.90
2022-10-12T06:12:56.284Z,5.90
2022-10-12T06:18:58.028Z,5.70
2022-10-12T06:24:59.707Z,5.70
2022-10-12T06:31:01.440Z,5.80
2022-10-12T06:37:03.290Z,5.80
2022-10-12T06:43:05.310Z,5.70
2022-10-12T06:49:07.047Z,5.80
2022-10-12T06:55:08.777Z,6.20
2022-10-12T07:01:10.834Z,6.20
2022-10-12T07:07:12.728Z,6.30
2022-10-12T07:13:14.493Z,6.20
2022-10-12T07:19:16.211Z,6.30
2022-10-12T07:25:18.086Z,6.30
2022-10-12T07:31:20.205Z,6.40
2022-10-12T07:37:22.128Z,6.60
2022-10-12T07:43:23.731Z,6.70
2022-10-12T07:49:25.628Z,6.80
2022-10-12T07:55:27.341Z,7.00
2022-10-12T08:01:30.177Z,7.10
2022-10-12T08:07:32.117Z,7.20
2022-10-12T08:13:34.352Z,7.30
2022-10-12T08:19:36.532Z,7.40
2022-10-12T08:25:38.207Z,7.40
2022-10-12T08:31:40.020Z,7.60
2022-10-12T08:37:41.997Z,7.90
2022-10-12T08:43:46.508Z,8.00
2022-10-12T08:49:50.177Z,8.30
2022-10-12T08:55:52.960Z,8.60
2022-10-12T09:01:56.176Z,8.90
2022-10-12T09:08:03.009Z,9.20
2022-10-12T09:14:23.963Z,9.50
2022-10-12T09:20:31.333Z,9.80
2022-10-12T09:26:37.872Z,10.00
2022-10-12T09:32:51.599Z,10.60
2022-10-12T09:38:53.859Z,11.00
2022-10-12T09:44:59.293Z,11.00
2022-10-12T09:51:02.193Z,11.50
2022-10-12T09:57:04.082Z,11.30
2022-10-12T10:03:22.730Z,11.70
2022-10-12T10:09:32.202Z,12.30
2022-10-12T10:15:35.593Z,12.90
2022-10-12T10:21:40.602Z,13.40
2022-10-12T10:27:42.544Z,13.60
2022-10-12T10:33:44.881Z,13.80
2022-10-12T10:39:48.197Z,14.10
2022-10-12T10:45:51.865Z,14.50
2022-10-12T10:51:58.016Z,14.60
2022-10-12T10:58:05.111Z,14.90
2022-10-12T11:04:13.429Z,15.30
2022-10-12T11:10:28.136Z,15.40
2022-10-12T11:16:41.980Z,15.20
2022-10-12T11:22:49.959Z,14.60
2022-10-12T11:28:53.372Z,14.80
2022-10-12T11:34:57.030Z,14.90
2022-10-12T11:41:33.948Z,15.00
2022-10-12T11:47:46.822Z,15.20
2022-10-12T11:53:48.463Z,15.80
2022-10-12T11:59:55.835Z,15.40
2022-10-12T12:06:17.447Z,15.10
2022-10-12T12:12:21.999Z,15.00
2022-10-12T12:18:25.372Z,14.70
2022-10-12T12:24:27.325Z,14.70
2022-10-12T12:30:33.721Z,15.00
2022-10-12T12:36:36.740Z,15.20
2022-10-12T12:42:38.657Z,15.40
2022-10-12T12:48:43.062Z,15.50
2022-10-12T12:55:05.763Z,15.80
2022-10-12T13:01:15.557Z,16.00
2022-10-12T13:07:19.957Z,15.70
2022-10-12T13:13:38.037Z,15.50
2022-10-12T13:19:40.528Z,15.50
2022-10-12T13:25:44.733Z,15.30
2022-10-12T13:31:47.605Z,15.60
2022-10-12T13:38:00.259Z,15.80
2022-10-12T13:44:05.729Z,15.90
2022-10-12T13:50:18.148Z,15.90
2022-10-12T13:56:20.877Z,15.80
2022-10-12T14:02:24.334Z,15.70
2022-10-12T14:08:26.916Z,15.60
2022-10-12T14:14:34.054Z,15.30
2022-10-12T14:20:39.668Z,15.20
2022-10-12T14:26:45.761Z,15.10
2022-10-12T14:32:47.970Z,15.00
2022-10-12T14:38:50.649Z,14.80
2022-10-12T14:44:52.699Z,14.70
2022-10-12T14:50:54.624Z,14.70
2022-10-12T14:56:56.923Z,14.70
2022-10-12T15:02:58.943Z,14.70
2022-10-12T15:09:00.584Z,14.60
2022-10-12T15:15:10.918Z,14.60
2022-10-12T15:21:13.600Z,14.60
2022-10-12T15:27:15.659Z,14.50
2022-10-12T15:33:17.318Z,14.40
2022-10-12T15:39:19.322Z,14.40
2022-10-12T15:45:21.022Z,14.30
2022-10-12T15:51:24.213Z,14.10
2022-10-12T15:57:25.916Z,14.00
2022-10-12T16:03:31.370Z,13.90
2022-10-12T16:09:33.057Z,13.70
2022-10-12T16:15:35.159Z,13.50
2022-10-12T16:21:36.935Z,13.20
2022-10-12T16:27:39.076Z,13.10
2022-10-12T16:33:41.619Z,12.70
2022-10-12T16:39:45.890Z,12.40
2022-10-12T16:45:54.746Z,12.20
2022-10-12T16:51:57.029Z,12.10
2022-10-12T16:57:58.676Z,11.90
2022-10-12T17:04:02.083Z,11.70
2022-10-12T17:10:03.997Z,11.60
2022-10-12T17:16:24.567Z,11.70
2022-10-12T17:22:26.297Z,11.90
2022-10-12T17:28:28.033Z,11.70
2022-10-12T17:34:31.499Z,11.30
2022-10-12T17:40:39.414Z,11.20
2022-10-12T17:46:42.416Z,11.20
2022-10-12T17:52:44.356Z,11.00
2022-10-12T17:58:45.993Z,11.00
2022-10-12T18:04:47.749Z,11.00
2022-10-12T18:10:50.223Z,10.90
2022-10-12T18:16:52.170Z,11.00
2022-10-12T18:22:54.038Z,11.00
2022-10-12T18:28:55.871Z,11.10
2022-10-12T18:34:57.776Z,11.10
2022-10-12T18:41:06.215Z,11.20
2022-10-12T18:47:07.959Z,11.30
2022-10-12T18:53:09.624Z,11.20
2022-10-12T18:59:12.130Z,11.30
2022-10-12T19:05:14.057Z,11.40
2022-10-12T19:11:17.650Z,11.50
2022-10-12T19:17:19.552Z,11.60
2022-10-12T19:23:21.236Z,11.30
2022-10-12T19:29:22.861Z,11.50
2022-10-12T19:35:25.098Z,11.50
2022-10-12T19:41:30.061Z,11.60
2022-10-12T19:47:32.290Z,11.70
2022-10-12T19:53:34.022Z,11.70
2022-10-12T19:59:35.721Z,11.60
2022-10-12T20:05:37.365Z,11.60
2022-10-12T20:11:39.687Z,11.70
2022-10-12T20:17:41.470Z,11.60
2022-10-12T20:23:43.320Z,11.50
2022-10-12T20:29:45.121Z,11.50
2022-10-12T20:35:47.801Z,11.30
2022-10-12T20:41:49.641Z,11.20
2022-10-12T20:47:51.545Z,11.10
2022-10-12T20:53:53.866Z,11.10
2022-10-12T20:59:55.969Z,11.00
2022-10-12T21:06:01.547Z,11.00
2022-10-12T21:12:03.613Z,11.00
2022-10-12T21:18:05.359Z,10.90
2022-10-12T21:24:08.197Z,10.70
2022-10-12T21:30:10.046Z,10.40
2022-10-12T21:36:11.915Z,10.30
2022-10-12T21:42:13.852Z,10.40
2022-10-12T21:48:15.553Z,10.60
2022-10-12T21:54:17.253Z,10.70
2022-10-12T22:00:19.035Z,10.70
2022-10-12T22:06:21.769Z,10.70
2022-10-12T22:12:24.730Z,10.70
2022-10-12T22:18:26.553Z,10.60
2022-10-12T22:24:28.154Z,10.70
2022-10-12T22:30:29.756Z,10.60
2022-10-12T22:36:31.999Z,10.60
2022-10-12T22:42:33.683Z,10.70
2022-10-12T22:48:36.569Z,10.70
2022-10-12T22:54:38.188Z,10.70
2022-10-12T23:00:40.190Z,10.70
2022-10-12T23:06:42.019Z,10.80
2022-10-12T23:12:43.872Z,10.80
2022-10-12T23:18:45.835Z,10.80
2022-10-12T23:24:47.561Z,10.80
2022-10-12T23:30:49.175Z,10.80
2022-10-12T23:36:50.901Z,10.80
2022-10-12T23:42:52.683Z,10.90
2022-10-12T23:48:54.374Z,10.90
2022-10-12T23:54:56.050Z,10.90
